createdAt,value
2023-03-21T00:00:17.306Z,97.67
2023-03-21T00:01:20.189Z,97.67
2023-03-21T00:02:23.155Z,97.73
2023-03-21T00:03:58.507Z,97.68
2023-03-21T00:05:15.547Z,97.69
2023-03-21T00:06:19.765Z,97.69
2023-03-21T00:07:54.826Z,97.70
2023-03-21T00:08:59.953Z,97.68
2023-03-21T00:10:33.100Z,97.60
2023-03-21T00:12:14.275Z,97.49
2023-03-21T00:13:17.031Z,97.50
2023-03-21T00:14:20.945Z,97.42
2023-03-21T00:16:19.332Z,97.36
2023-03-21T00:17:34.742Z,97.36
2023-03-21T00:18:37.696Z,97.33
2023-03-21T00:20:12.788Z,97.26
2023-03-21T00:22:05.821Z,97.29
2023-03-21T00:23:09.723Z,97.22
2023-03-21T00:24:44.502Z,97.12
2023-03-21T00:25:47.403Z,97.14
2023-03-21T00:26:50.612Z,97.14
2023-03-21T00:29:25.660Z,97.12
2023-03-21T00:30:28.410Z,97.14
2023-03-21T00:31:31.448Z,97.12
2023-03-21T00:36:47.562Z,97.05
2023-03-21T00:37:50.370Z,97.09
2023-03-21T00:39:25.068Z,97.14
2023-03-21T00:40:43.692Z,97.11
2023-03-21T00:42:23.788Z,97.04
2023-03-21T00:43:58.552Z,97.07
2023-03-21T00:45:01.833Z,97.00
2023-03-21T00:46:04.721Z,97.01
2023-03-21T00:48:00.162Z,97.05
2023-03-21T00:49:03.651Z,96.98
2023-03-21T00:50:06.520Z,97.02
2023-03-21T00:51:41.374Z,97.00
2023-03-21T00:53:14.746Z,97.06
2023-03-21T00:54:17.736Z,97.03
2023-03-21T00:55:52.211Z,96.99
2023-03-21T00:56:55.064Z,97.00
2023-03-21T00:58:07.596Z,97.01
2023-03-21T00:59:42.480Z,97.00
2023-03-21T01:00:17.966Z,97.00
2023-03-21T01:01:21.274Z,96.96
2023-03-21T01:02:24.858Z,96.94
2023-03-21T01:04:17.235Z,96.94
2023-03-21T01:05:20.109Z,96.98
2023-03-21T01:06:23.550Z,96.96
2023-03-21T01:07:58.107Z,96.96
2023-03-21T01:09:37.522Z,96.95
2023-03-21T01:10:40.185Z,96.97
2023-03-21T01:12:14.772Z,96.94
2023-03-21T01:13:17.423Z,96.92
2023-03-21T01:14:34.902Z,96.94
2023-03-21T01:16:09.976Z,96.94
2023-03-21T01:17:13.169Z,96.94
2023-03-21T01:18:16.122Z,96.94
2023-03-21T01:20:05.327Z,96.97
2023-03-21T01:21:08.262Z,97.00
2023-03-21T01:22:11.420Z,97.01
2023-03-21T01:23:46.194Z,97.00
2023-03-21T01:25:12.367Z,97.00
2023-03-21T01:26:24.792Z,97.05
2023-03-21T01:27:59.397Z,97.09
2023-03-21T01:29:02.161Z,97.09
2023-03-21T01:30:11.227Z,97.05
2023-03-21T01:32:00.670Z,96.95
2023-03-21T01:33:03.706Z,96.96
2023-03-21T01:34:06.649Z,96.97
2023-03-21T01:36:09.989Z,96.93
2023-03-21T01:37:20.200Z,96.89
2023-03-21T01:38:23.100Z,96.91
2023-03-21T01:39:58.060Z,96.87
2023-03-21T01:41:00.874Z,96.95
2023-03-21T01:42:32.101Z,96.90
2023-03-21T01:44:06.724Z,96.96
2023-03-21T01:45:09.527Z,96.95
2023-03-21T01:46:12.523Z,96.93
2023-03-21T01:48:22.661Z,96.92
2023-03-21T01:49:25.508Z,96.99
2023-03-21T01:50:28.486Z,96.91
2023-03-21T01:52:13.158Z,96.89
2023-03-21T01:53:34.179Z,96.84
2023-03-21T01:54:36.991Z,96.87
2023-03-21T01:56:11.726Z,96.94
2023-03-21T01:57:14.576Z,96.92
2023-03-21T01:58:47.042Z,96.98
2023-03-21T02:00:17.609Z,96.98
2023-03-21T02:01:20.604Z,96.98
2023-03-21T02:02:23.557Z,97.00
2023-03-21T02:04:22.560Z,97.03
2023-03-21T02:05:25.748Z,97.01
2023-03-21T02:06:29.011Z,97.00
2023-03-21T02:08:03.864Z,97.03
2023-03-21T02:09:19.937Z,97.00
2023-03-21T02:10:22.950Z,96.99
2023-03-21T02:11:57.593Z,97.04
2023-03-21T02:13:00.450Z,96.99
2023-03-21T02:14:15.341Z,96.98
2023-03-21T02:15:58.761Z,96.97
2023-03-21T02:17:02.093Z,97.02
2023-03-21T02:18:04.943Z,96.98
2023-03-21T02:19:53.392Z,96.99
2023-03-21T02:20:56.661Z,96.98
2023-03-21T02:21:59.390Z,96.96
2023-03-21T02:23:34.010Z,96.96
2023-03-21T02:24:36.720Z,96.92
2023-03-21T02:26:07.783Z,96.95
2023-03-21T02:27:56.647Z,96.96
2023-03-21T02:28:59.624Z,96.97
2023-03-21T02:30:03.870Z,96.98
2023-03-21T02:32:37.035Z,96.94
2023-03-21T02:33:40.472Z,96.90
2023-03-21T02:34:43.299Z,96.94
2023-03-21T02:36:34.139Z,96.89
2023-03-21T02:37:46.795Z,96.90
2023-03-21T02:38:58.131Z,96.87
2023-03-21T02:40:32.897Z,96.84
2023-03-21T02:41:45.727Z,96.81
2023-03-21T02:43:00.095Z,96.82
2023-03-21T02:44:47.619Z,96.81
2023-03-21T02:45:50.737Z,96.80
2023-03-21T02:47:06.726Z,96.81
2023-03-21T02:48:56.159Z,96.82
2023-03-21T02:49:59.365Z,96.78
2023-03-21T02:51:02.391Z,96.78
2023-03-21T02:52:45.685Z,96.73
2023-03-21T02:53:53.304Z,96.74
2023-03-21T02:55:39.789Z,96.68
2023-03-21T02:57:14.516Z,96.67
2023-03-21T02:58:32.958Z,96.70
2023-03-21T02:59:44.366Z,96.67
2023-03-21T03:00:22.871Z,96.70
2023-03-21T03:01:26.219Z,96.67
2023-03-21T03:02:29.480Z,96.67
2023-03-21T03:04:26.332Z,96.62
2023-03-21T03:05:29.619Z,96.61
2023-03-21T03:06:32.673Z,96.60
2023-03-21T03:08:07.473Z,96.60
2023-03-21T03:09:41.837Z,96.62
2023-03-21T03:10:45.092Z,96.59
2023-03-21T03:12:19.928Z,96.59
2023-03-21T03:13:22.819Z,96.50
2023-03-21T03:15:00.293Z,96.54
2023-03-21T03:16:37.596Z,96.54
2023-03-21T03:17:40.473Z,96.55
2023-03-21T03:18:43.234Z,96.49
2023-03-21T03:20:31.785Z,96.51
2023-03-21T03:21:35.310Z,96.49
2023-03-21T03:22:38.211Z,96.51
2023-03-21T03:24:13.230Z,96.51
2023-03-21T03:25:42.066Z,96.59
2023-03-21T03:26:46.053Z,96.57
2023-03-21T03:28:21.241Z,96.52
2023-03-21T03:29:23.959Z,96.53
2023-03-21T03:30:39.296Z,96.54
2023-03-21T03:32:39.124Z,96.47
2023-03-21T03:33:42.125Z,96.47
2023-03-21T03:34:45.014Z,96.50
2023-03-21T03:36:32.629Z,96.44
2023-03-21T03:37:36.108Z,96.49
2023-03-21T03:38:39.048Z,96.53
2023-03-21T03:40:13.858Z,96.52
2023-03-21T03:41:17.289Z,96.45
2023-03-21T03:43:07.812Z,96.38
2023-03-21T03:44:42.688Z,96.41
2023-03-21T03:45:45.582Z,96.41
2023-03-21T03:46:48.699Z,96.35
2023-03-21T03:48:48.226Z,96.38
2023-03-21T03:49:50.883Z,96.33
2023-03-21T03:50:53.791Z,96.36
2023-03-21T03:52:28.248Z,96.27
2023-03-21T03:53:59.137Z,96.30
2023-03-21T03:55:02.019Z,96.29
2023-03-21T03:56:36.667Z,96.27
2023-03-21T03:57:39.564Z,96.28
2023-03-21T03:58:51.482Z,96.25
2023-03-21T04:00:17.832Z,96.22
2023-03-21T04:01:21.044Z,96.23
2023-03-21T04:02:24.597Z,96.20
2023-03-21T04:04:16.212Z,96.21
2023-03-21T04:05:19.218Z,96.20
2023-03-21T04:06:22.193Z,96.21
2023-03-21T04:07:57.013Z,96.25
2023-03-21T04:09:01.665Z,96.19
2023-03-21T04:10:35.359Z,96.18
2023-03-21T04:12:10.224Z,96.18
2023-03-21T04:13:13.080Z,96.19
2023-03-21T04:14:16.123Z,96.17
2023-03-21T04:16:07.450Z,96.13
2023-03-21T04:17:10.905Z,96.13
2023-03-21T04:18:13.732Z,96.17
2023-03-21T04:19:48.479Z,96.18
2023-03-21T04:21:24.097Z,96.15
2023-03-21T04:22:26.894Z,96.18
2023-03-21T04:24:01.456Z,96.18
2023-03-21T04:25:06.150Z,96.15
2023-03-21T04:26:37.532Z,96.15
2023-03-21T04:28:12.230Z,96.16
2023-03-21T04:29:15.078Z,96.09
2023-03-21T04:30:17.844Z,96.12
2023-03-21T04:32:12.484Z,96.14
2023-03-21T04:33:15.529Z,96.18
2023-03-21T04:34:18.633Z,96.12
2023-03-21T04:35:53.549Z,96.10
2023-03-21T04:36:56.863Z,96.10
2023-03-21T04:37:59.802Z,96.10
2023-03-21T04:39:34.705Z,96.08
2023-03-21T04:40:38.143Z,96.11
2023-03-21T04:41:41.064Z,96.11
2023-03-21T04:43:15.977Z,96.10
2023-03-21T04:44:18.713Z,96.09
2023-03-21T04:45:21.525Z,96.08
2023-03-21T04:46:57.090Z,96.12
2023-03-21T04:48:00.290Z,96.16
2023-03-21T04:49:03.471Z,96.13
2023-03-21T04:50:38.688Z,96.10
2023-03-21T04:51:41.665Z,96.17
2023-03-21T04:52:44.632Z,96.19
2023-03-21T04:54:19.270Z,96.20
2023-03-21T04:55:22.133Z,96.22
2023-03-21T04:56:25.332Z,96.25
2023-03-21T04:58:00.101Z,96.17
2023-03-21T04:59:02.905Z,96.19
2023-03-21T05:00:17.557Z,96.19
2023-03-21T05:01:20.638Z,96.17
2023-03-21T05:02:23.709Z,96.20
2023-03-21T05:03:58.270Z,96.19
2023-03-21T05:05:01.598Z,96.20
2023-03-21T05:05:46.527Z,96.15
2023-03-21T05:06:49.613Z,96.15
2023-03-21T05:07:52.799Z,96.11
2023-03-21T05:09:27.648Z,96.11
2023-03-21T05:10:30.644Z,96.09
2023-03-21T05:11:33.786Z,96.13
2023-03-21T05:13:08.904Z,96.11
2023-03-21T05:14:11.847Z,96.08
2023-03-21T05:15:14.707Z,96.02
2023-03-21T05:16:50.363Z,96.04
2023-03-21T05:17:53.910Z,96.05
2023-03-21T05:18:57.043Z,96.06
2023-03-21T05:20:31.713Z,96.02
2023-03-21T05:21:35.115Z,96.00
2023-03-21T05:22:38.163Z,96.01
2023-03-21T05:24:12.854Z,95.96
2023-03-21T05:25:15.772Z,95.96
2023-03-21T05:26:19.231Z,95.95
2023-03-21T05:27:54.166Z,95.93
2023-03-21T05:28:57.132Z,95.92
2023-03-21T05:30:00.050Z,95.91
2023-03-21T05:31:35.128Z,95.91
2023-03-21T05:32:38.141Z,95.92
2023-03-21T05:33:41.124Z,95.87
2023-03-21T05:35:16.229Z,95.88
2023-03-21T05:36:20.301Z,95.82
2023-03-21T05:37:23.242Z,95.86
2023-03-21T05:38:57.962Z,95.78
2023-03-21T05:40:01.037Z,95.85
2023-03-21T05:41:04.138Z,95.85
2023-03-21T05:42:38.893Z,95.80
2023-03-21T05:43:41.617Z,95.78
2023-03-21T05:44:44.733Z,95.81
2023-03-21T05:46:20.151Z,95.79
2023-03-21T05:47:23.294Z,95.81
2023-03-21T05:48:26.527Z,95.75
2023-03-21T05:50:01.330Z,95.79
2023-03-21T05:51:04.494Z,95.79
2023-03-21T05:52:07.603Z,95.78
2023-03-21T05:53:42.377Z,95.80
2023-03-21T05:54:45.351Z,95.77
2023-03-21T05:55:48.327Z,95.81
2023-03-21T05:57:23.128Z,95.90
2023-03-21T05:58:26.280Z,95.86
2023-03-21T05:59:29.262Z,95.89
2023-03-21T06:00:17.877Z,95.87
2023-03-21T06:01:22.343Z,95.89
2023-03-21T06:02:25.365Z,95.94
2023-03-21T06:04:00.754Z,95.95
2023-03-21T06:05:04.209Z,95.95
2023-03-21T06:06:07.384Z,95.96
2023-03-21T06:07:42.286Z,95.96
2023-03-21T06:08:45.363Z,95.95
2023-03-21T06:09:48.773Z,95.94
2023-03-21T06:11:23.612Z,95.96
2023-03-21T06:12:26.738Z,95.98
2023-03-21T06:13:29.551Z,95.92
2023-03-21T06:15:04.306Z,95.90
2023-03-21T06:16:07.341Z,95.88
2023-03-21T06:17:10.556Z,95.89
2023-03-21T06:18:45.362Z,95.85
2023-03-21T06:19:48.260Z,95.86
2023-03-21T06:20:51.356Z,95.82
2023-03-21T06:22:26.202Z,95.82
2023-03-21T06:23:29.233Z,95.79
2023-03-21T06:24:32.209Z,95.77
2023-03-21T06:26:07.202Z,95.79
2023-03-21T06:27:10.024Z,95.75
2023-03-21T06:28:12.896Z,95.74
2023-03-21T06:29:47.821Z,95.69
2023-03-21T06:30:50.623Z,95.70
2023-03-21T06:31:54.017Z,95.79
2023-03-21T06:33:29.007Z,95.80
2023-03-21T06:34:32.053Z,95.76
2023-03-21T06:35:37.284Z,95.76
2023-03-21T06:37:12.520Z,95.72
2023-03-21T06:38:15.544Z,95.72
2023-03-21T06:39:18.657Z,95.70
2023-03-21T06:40:53.524Z,95.73
2023-03-21T06:41:56.579Z,95.73
2023-03-21T06:42:59.340Z,95.74
2023-03-21T06:44:34.215Z,95.71
2023-03-21T06:45:37.358Z,95.64
2023-03-21T06:46:40.498Z,95.67
2023-03-21T06:48:16.076Z,95.66
2023-03-21T06:49:19.232Z,95.64
2023-03-21T06:50:22.272Z,95.66
2023-03-21T06:51:57.056Z,95.64
2023-03-21T06:52:59.936Z,95.68
2023-03-21T06:54:03.184Z,95.64
2023-03-21T06:55:38.397Z,95.61
2023-03-21T06:56:41.501Z,95.65
2023-03-21T06:57:44.410Z,95.64
2023-03-21T06:59:19.364Z,95.57
2023-03-21T07:00:18.355Z,95.58
2023-03-21T07:01:21.610Z,95.58
2023-03-21T07:02:24.807Z,95.58
2023-03-21T07:04:03.317Z,95.57
2023-03-21T07:05:06.112Z,95.50
2023-03-21T07:06:09.266Z,95.51
2023-03-21T07:07:43.970Z,95.49
2023-03-21T07:08:46.930Z,95.54
2023-03-21T07:09:50.064Z,95.56
2023-03-21T07:11:26.019Z,95.54
2023-03-21T07:12:28.905Z,95.57
2023-03-21T07:13:31.886Z,95.55
2023-03-21T07:15:06.522Z,95.56
2023-03-21T07:16:09.508Z,95.57
2023-03-21T07:17:12.580Z,95.62
2023-03-21T07:18:47.176Z,95.57
2023-03-21T07:19:50.598Z,95.52
2023-03-21T07:20:53.551Z,95.57
2023-03-21T07:22:28.402Z,95.60
2023-03-21T07:23:31.494Z,95.59
2023-03-21T07:24:34.551Z,95.59
2023-03-21T07:26:24.267Z,95.64
2023-03-21T07:27:27.175Z,95.63
2023-03-21T07:28:32.662Z,95.62
2023-03-21T07:30:07.622Z,95.63
2023-03-21T07:31:10.648Z,95.49
2023-03-21T07:32:13.821Z,95.42
2023-03-21T07:33:48.362Z,95.38
2023-03-21T07:34:51.165Z,95.48
2023-03-21T07:35:54.154Z,95.41
2023-03-21T07:37:29.365Z,95.38
2023-03-21T07:38:35.264Z,95.42
2023-03-21T07:39:38.148Z,95.46
2023-03-21T07:41:12.974Z,95.39
2023-03-21T07:42:16.227Z,95.39
2023-03-21T07:44:56.988Z,95.35
2023-03-21T07:46:02.022Z,95.44
2023-03-21T07:47:05.553Z,95.32
2023-03-21T07:48:40.955Z,95.43
2023-03-21T07:49:43.758Z,95.42
2023-03-21T07:50:46.647Z,95.35
2023-03-21T07:52:21.374Z,95.19
2023-03-21T07:53:24.366Z,95.21
2023-03-21T07:54:27.196Z,95.24
2023-03-21T07:56:02.328Z,95.23
2023-03-21T07:57:05.376Z,95.29
2023-03-21T07:58:10.970Z,95.34
2023-03-21T07:59:45.682Z,95.27
2023-03-21T08:00:18.212Z,95.26
2023-03-21T08:01:21.103Z,95.32
2023-03-21T08:02:24.156Z,95.30
2023-03-21T08:03:59.678Z,95.19
2023-03-21T08:05:02.445Z,95.21
2023-03-21T08:06:05.414Z,95.12
2023-03-21T08:07:40.095Z,95.10
2023-03-21T08:08:42.995Z,95.03
2023-03-21T08:09:45.845Z,95.05
2023-03-21T08:11:20.812Z,94.94
2023-03-21T08:12:23.595Z,94.96
2023-03-21T08:13:26.405Z,94.94
2023-03-21T08:15:01.446Z,94.99
2023-03-21T08:16:04.421Z,95.04
2023-03-21T08:17:07.667Z,95.04
2023-03-21T08:18:42.524Z,95.04
2023-03-21T08:19:45.514Z,95.03
2023-03-21T08:20:48.676Z,94.98
2023-03-21T08:22:23.407Z,94.97
2023-03-21T08:23:26.153Z,94.95
2023-03-21T08:24:28.965Z,94.90
2023-03-21T08:26:03.776Z,94.76
2023-03-21T08:27:06.918Z,94.77
2023-03-21T08:28:09.720Z,94.76
2023-03-21T08:29:44.259Z,94.81
2023-03-21T08:30:47.314Z,94.76
2023-03-21T08:31:50.588Z,94.75
2023-03-21T08:33:25.567Z,94.75
2023-03-21T08:34:28.448Z,94.78
2023-03-21T08:35:31.507Z,94.76
2023-03-21T08:37:11.143Z,94.85
2023-03-21T08:38:14.113Z,94.90
2023-03-21T08:39:16.973Z,94.91
2023-03-21T08:40:52.161Z,94.93
2023-03-21T08:41:57.600Z,94.92
2023-03-21T08:43:00.521Z,95.01
2023-03-21T08:44:38.251Z,95.09
2023-03-21T08:45:41.462Z,95.03
2023-03-21T08:46:44.760Z,94.99
2023-03-21T08:48:19.919Z,95.00
2023-03-21T08:49:23.024Z,95.09
2023-03-21T08:50:26.125Z,94.98
2023-03-21T08:52:00.965Z,94.96
2023-03-21T08:53:04.093Z,95.07
2023-03-21T08:54:07.245Z,95.17
2023-03-21T08:55:42.215Z,95.12
2023-03-21T08:56:44.961Z,95.09
2023-03-21T08:57:47.751Z,95.15
2023-03-21T08:59:22.424Z,95.10
2023-03-21T09:00:17.480Z,95.05
2023-03-21T09:01:20.433Z,95.15
2023-03-21T09:02:23.592Z,95.12
2023-03-21T09:03:58.372Z,95.08
2023-03-21T09:05:01.764Z,95.24
2023-03-21T09:06:04.771Z,95.30
2023-03-21T09:07:39.555Z,95.22
2023-03-21T09:08:42.489Z,95.25
2023-03-21T09:09:47.666Z,95.20
2023-03-21T09:11:48.236Z,95.31
2023-03-21T09:12:51.114Z,95.31
2023-03-21T09:13:54.025Z,95.28
2023-03-21T09:15:28.853Z,95.04
2023-03-21T09:16:32.756Z,94.98
2023-03-21T09:17:35.571Z,94.99
2023-03-21T09:19:10.358Z,94.84
2023-03-21T09:20:13.061Z,94.69
2023-03-21T09:21:16.206Z,94.73
2023-03-21T09:22:51.083Z,94.65
2023-03-21T09:23:54.106Z,94.77
2023-03-21T09:24:57.018Z,94.37
2023-03-21T09:26:32.606Z,94.59
2023-03-21T09:27:36.256Z,94.49
2023-03-21T09:28:39.278Z,94.30
2023-03-21T09:30:13.912Z,94.20
2023-03-21T09:31:18.402Z,94.13
2023-03-21T09:32:21.769Z,94.12
2023-03-21T09:33:56.491Z,94.15
2023-03-21T09:34:59.437Z,94.17
2023-03-21T09:36:02.335Z,94.13
2023-03-21T09:37:37.619Z,94.18
2023-03-21T09:38:40.760Z,94.23
2023-03-21T09:39:43.881Z,94.45
2023-03-21T09:41:18.641Z,94.27
2023-03-21T09:42:21.654Z,94.18
2023-03-21T09:43:24.760Z,93.98
2023-03-21T09:44:59.535Z,94.02
2023-03-21T09:46:02.460Z,93.81
2023-03-21T09:47:06.094Z,93.97
2023-03-21T09:48:56.089Z,93.92
2023-03-21T09:50:14.458Z,93.78
2023-03-21T09:51:18.051Z,93.69
2023-03-21T09:52:53.000Z,93.71
2023-03-21T09:53:57.115Z,93.38
2023-03-21T09:55:00.445Z,93.32
2023-03-21T09:56:35.436Z,93.27
2023-03-21T09:57:38.430Z,93.35
2023-03-21T09:58:41.423Z,93.40
2023-03-21T10:00:18.201Z,92.77
2023-03-21T10:01:21.446Z,92.82
2023-03-21T10:02:24.307Z,92.83
2023-03-21T10:03:59.042Z,92.79
2023-03-21T10:05:02.218Z,92.81
2023-03-21T10:06:05.220Z,92.55
2023-03-21T10:07:40.108Z,92.26
2023-03-21T10:08:43.046Z,92.20
2023-03-21T10:09:49.035Z,92.43
2023-03-21T10:11:24.423Z,92.15
2023-03-21T10:12:27.351Z,92.29
2023-03-21T10:13:30.356Z,92.32
2023-03-21T10:15:05.302Z,92.46
2023-03-21T10:16:08.487Z,92.40
2023-03-21T10:17:12.080Z,92.41
2023-03-21T10:18:47.044Z,92.43
2023-03-21T10:19:50.066Z,92.11
2023-03-21T10:20:52.837Z,91.78
2023-03-21T10:22:54.610Z,91.62
2023-03-21T10:23:57.657Z,91.74
2023-03-21T10:25:00.530Z,91.69
2023-03-21T10:26:35.288Z,91.67
2023-03-21T10:27:38.286Z,91.52
2023-03-21T10:28:57.944Z,91.75
2023-03-21T10:30:33.495Z,91.85
2023-03-21T10:31:37.075Z,91.67
2023-03-21T10:32:40.647Z,91.61
2023-03-21T10:34:17.740Z,91.55
2023-03-21T10:35:20.731Z,91.55
2023-03-21T10:36:24.761Z,91.65
2023-03-21T10:37:59.758Z,91.03
2023-03-21T10:39:02.464Z,91.17
2023-03-21T10:40:05.495Z,91.16
2023-03-21T10:41:40.175Z,91.22
2023-03-21T10:42:43.021Z,91.12
2023-03-21T10:43:46.019Z,91.29
2023-03-21T10:45:20.661Z,91.24
2023-03-21T10:46:24.858Z,91.41
2023-03-21T10:47:29.958Z,91.29
2023-03-21T10:49:07.589Z,91.25
2023-03-21T10:50:17.072Z,90.98
2023-03-21T10:51:20.359Z,90.90
2023-03-21T10:52:55.221Z,90.51
2023-03-21T10:53:58.352Z,90.55
2023-03-21T10:55:01.301Z,90.33
2023-03-21T10:56:35.888Z,90.28
2023-03-21T10:57:38.815Z,90.00
2023-03-21T10:58:41.742Z,90.22
2023-03-21T11:00:17.618Z,90.10
2023-03-21T11:01:20.924Z,90.44
2023-03-21T11:02:24.488Z,90.07
2023-03-21T11:03:59.725Z,90.07
2023-03-21T11:05:02.930Z,90.09
2023-03-21T11:06:07.132Z,89.96
2023-03-21T11:07:42.228Z,90.26
2023-03-21T11:08:45.174Z,89.93
2023-03-21T11:09:48.177Z,89.49
2023-03-21T11:11:29.508Z,89.65
2023-03-21T11:12:32.252Z,89.61
2023-03-21T11:13:35.092Z,89.64
2023-03-21T11:15:09.649Z,89.36
2023-03-21T11:16:12.554Z,89.43
2023-03-21T11:17:16.012Z,89.55
2023-03-21T11:18:50.587Z,89.15
2023-03-21T11:19:53.492Z,88.67
2023-03-21T11:20:56.410Z,88.69
2023-03-21T11:22:31.158Z,88.37
2023-03-21T11:23:34.221Z,87.80
2023-03-21T11:24:37.975Z,88.60
2023-03-21T11:26:12.987Z,87.98
2023-03-21T11:27:16.289Z,88.22
2023-03-21T11:28:19.209Z,88.17
2023-03-21T11:29:54.049Z,87.95
2023-03-21T11:30:57.190Z,87.98
2023-03-21T11:32:00.454Z,87.30
2023-03-21T11:33:35.065Z,87.02
2023-03-21T11:34:38.063Z,87.22
2023-03-21T11:35:41.874Z,87.28
2023-03-21T11:37:17.402Z,86.97
2023-03-21T11:38:20.319Z,87.59
2023-03-21T11:39:23.280Z,87.24
2023-03-21T11:40:58.137Z,87.01
2023-03-21T11:42:01.151Z,86.81
2023-03-21T11:43:04.202Z,86.53
2023-03-21T11:44:39.716Z,86.03
2023-03-21T11:45:43.157Z,85.79
2023-03-21T11:46:46.561Z,85.63
2023-03-21T11:48:23.752Z,85.81
2023-03-21T11:49:26.971Z,85.63
2023-03-21T11:50:36.004Z,85.58
2023-03-21T11:52:10.747Z,85.01
2023-03-21T11:53:13.612Z,85.20
2023-03-21T11:54:16.497Z,85.22
2023-03-21T11:55:51.355Z,84.73
2023-03-21T11:56:54.295Z,84.43
2023-03-21T11:58:00.210Z,84.99
2023-03-21T11:59:44.645Z,85.30
2023-03-21T12:00:17.414Z,85.30
2023-03-21T12:01:20.508Z,85.44
2023-03-21T12:02:23.696Z,85.23
2023-03-21T12:04:00.648Z,85.42
2023-03-21T12:05:03.928Z,85.63
2023-03-21T12:06:06.663Z,85.89
2023-03-21T12:07:41.549Z,86.03
2023-03-21T12:08:44.367Z,85.98
2023-03-21T12:09:47.368Z,85.87
2023-03-21T12:11:22.336Z,85.87
2023-03-21T12:12:38.972Z,85.90
2023-03-21T12:13:42.357Z,85.46
2023-03-21T12:15:17.359Z,85.56
2023-03-21T12:16:21.015Z,85.79
2023-03-21T12:17:24.263Z,86.19
2023-03-21T12:18:59.467Z,85.99
2023-03-21T12:20:02.436Z,86.00
2023-03-21T12:21:05.411Z,85.53
2023-03-21T12:22:41.384Z,85.38
2023-03-21T12:23:44.547Z,85.49
2023-03-21T12:24:47.325Z,85.39
2023-03-21T12:26:22.827Z,85.42
2023-03-21T12:27:25.723Z,84.36
2023-03-21T12:28:38.819Z,84.48
2023-03-21T12:30:13.895Z,84.15
2023-03-21T12:31:17.203Z,84.06
2023-03-21T12:32:20.938Z,84.00
2023-03-21T12:33:59.169Z,83.77
2023-03-21T12:35:02.093Z,83.32
2023-03-21T12:36:05.155Z,83.06
2023-03-21T12:37:40.449Z,83.11
2023-03-21T12:38:45.573Z,83.42
2023-03-21T12:39:48.585Z,83.82
2023-03-21T12:41:23.357Z,83.68
2023-03-21T12:42:26.167Z,83.48
2023-03-21T12:43:29.011Z,83.64
2023-03-21T12:45:15.710Z,83.66
2023-03-21T12:46:33.797Z,83.41
2023-03-21T12:47:37.350Z,83.02
2023-03-21T12:49:12.790Z,83.27
2023-03-21T12:50:15.909Z,83.64
2023-03-21T12:51:18.997Z,83.75
2023-03-21T12:52:54.008Z,83.67
2023-03-21T12:53:56.883Z,83.83
2023-03-21T12:54:59.812Z,83.50
2023-03-21T12:56:34.385Z,82.97
2023-03-21T12:57:40.185Z,82.73
2023-03-21T12:58:55.315Z,83.26
2023-03-21T13:00:17.972Z,82.99
2023-03-21T13:01:22.073Z,83.18
2023-03-21T13:02:25.261Z,83.00
2023-03-21T13:04:10.966Z,82.65
2023-03-21T13:05:14.214Z,82.50
2023-03-21T13:06:17.052Z,82.69
2023-03-21T13:07:51.912Z,82.68
2023-03-21T13:08:54.904Z,82.44
2023-03-21T13:10:03.906Z,82.28
2023-03-21T13:11:41.308Z,82.64
2023-03-21T13:12:44.125Z,82.59
2023-03-21T13:13:46.992Z,82.94
2023-03-21T13:15:30.072Z,83.50
2023-03-21T13:16:33.425Z,83.49
2023-03-21T13:17:36.550Z,83.32
2023-03-21T13:19:11.202Z,82.78
2023-03-21T13:20:14.240Z,82.67
2023-03-21T13:21:17.633Z,82.26
2023-03-21T13:22:52.397Z,81.59
2023-03-21T13:23:57.363Z,81.44
2023-03-21T13:25:00.261Z,81.01
2023-03-21T13:26:35.205Z,80.99
2023-03-21T13:27:38.185Z,80.04
2023-03-21T13:28:41.235Z,79.54
2023-03-21T13:30:18.627Z,78.86
2023-03-21T13:31:22.795Z,79.71
2023-03-21T13:32:44.333Z,80.53
2023-03-21T13:34:19.247Z,80.31
2023-03-21T13:35:22.078Z,79.78
2023-03-21T13:36:25.891Z,79.33
2023-03-21T13:38:00.681Z,79.66
2023-03-21T13:39:05.272Z,78.83
2023-03-21T13:40:08.213Z,79.14
2023-03-21T13:41:43.078Z,79.92
2023-03-21T13:42:46.122Z,79.45
2023-03-21T13:43:52.327Z,79.55
2023-03-21T13:45:30.481Z,79.95
2023-03-21T13:46:43.481Z,80.20
2023-03-21T13:47:53.687Z,79.55
2023-03-21T13:49:44.356Z,79.14
2023-03-21T13:50:47.216Z,79.10
2023-03-21T13:51:52.433Z,79.42
2023-03-21T13:53:27.381Z,79.95
2023-03-21T13:54:30.331Z,79.09
2023-03-21T13:55:33.314Z,78.74
2023-03-21T13:57:08.527Z,78.49
2023-03-21T13:58:11.536Z,77.67
2023-03-21T13:59:14.546Z,78.67
2023-03-21T14:00:17.446Z,78.15
2023-03-21T14:01:20.533Z,77.59
2023-03-21T14:02:23.963Z,78.13
2023-03-21T14:04:01.624Z,78.04
2023-03-21T14:05:17.333Z,78.23
2023-03-21T14:06:20.908Z,78.32
2023-03-21T14:08:06.137Z,77.51
2023-03-21T14:09:29.476Z,77.57
2023-03-21T14:10:32.361Z,77.44
2023-03-21T14:12:13.343Z,76.63
2023-03-21T14:13:16.451Z,76.67
2023-03-21T14:14:36.416Z,75.84
2023-03-21T14:16:36.566Z,76.17
2023-03-21T14:17:39.771Z,76.48
2023-03-21T14:19:01.492Z,76.40
2023-03-21T14:20:36.225Z,76.62
2023-03-21T14:21:39.371Z,75.98
2023-03-21T14:22:45.503Z,73.96
2023-03-21T14:24:20.136Z,74.29
2023-03-21T14:25:24.334Z,74.29
2023-03-21T14:26:39.676Z,74.22
2023-03-21T14:28:14.510Z,73.29
2023-03-21T14:29:32.048Z,74.10
2023-03-21T14:30:35.069Z,74.49
2023-03-21T14:32:10.966Z,74.26
2023-03-21T14:33:13.977Z,74.63
2023-03-21T14:34:17.382Z,74.91
2023-03-21T14:35:53.169Z,73.94
2023-03-21T14:37:04.349Z,72.84
2023-03-21T14:38:07.221Z,72.38
2023-03-21T14:39:42.051Z,73.96
2023-03-21T14:40:46.879Z,72.96
2023-03-21T14:41:49.674Z,72.26
2023-03-21T14:43:24.281Z,72.27
2023-03-21T14:44:27.288Z,73.29
2023-03-21T14:45:48.017Z,72.99
2023-03-21T14:47:23.481Z,71.53
2023-03-21T14:48:26.536Z,71.61
2023-03-21T14:49:29.477Z,71.38
2023-03-21T14:51:04.417Z,70.28
2023-03-21T14:52:07.331Z,70.42
2023-03-21T14:53:10.281Z,71.92
2023-03-21T14:54:45.190Z,71.42
2023-03-21T14:55:48.056Z,72.17
2023-03-21T14:56:50.894Z,72.32
2023-03-21T14:58:26.163Z,72.30
2023-03-21T14:59:29.027Z,72.00
2023-03-21T15:00:18.061Z,71.40
2023-03-21T15:01:21.142Z,71.51
2023-03-21T15:02:24.444Z,71.64
2023-03-21T15:04:00.609Z,72.08
2023-03-21T15:05:04.069Z,71.86
2023-03-21T15:06:07.437Z,72.24
2023-03-21T15:07:42.547Z,72.49
2023-03-21T15:08:45.644Z,73.17
2023-03-21T15:09:51.800Z,72.91
2023-03-21T15:11:27.753Z,73.36
2023-03-21T15:12:30.623Z,73.15
2023-03-21T15:13:33.446Z,72.89
2023-03-21T15:15:08.118Z,71.42
2023-03-21T15:16:13.770Z,71.81
2023-03-21T15:17:17.266Z,72.68
2023-03-21T15:18:52.044Z,71.88
2023-03-21T15:19:54.967Z,72.25
2023-03-21T15:20:58.117Z,71.23
2023-03-21T15:22:32.948Z,71.80
2023-03-21T15:23:36.107Z,72.50
2023-03-21T15:24:39.281Z,71.60
2023-03-21T15:26:14.072Z,70.58
2023-03-21T15:27:17.045Z,71.45
2023-03-21T15:28:19.880Z,71.30
2023-03-21T15:29:54.788Z,70.95
2023-03-21T15:30:57.936Z,71.37
2023-03-21T15:32:01.244Z,71.58
2023-03-21T15:33:38.906Z,71.74
2023-03-21T15:34:41.780Z,72.59
2023-03-21T15:35:45.322Z,72.20
2023-03-21T15:37:20.491Z,71.29
2023-03-21T15:38:23.484Z,71.53
2023-03-21T15:39:26.502Z,71.89
2023-03-21T15:41:01.480Z,71.61
2023-03-21T15:42:04.441Z,71.80
2023-03-21T15:43:07.462Z,71.77
2023-03-21T15:44:42.448Z,71.98
2023-03-21T15:45:46.107Z,72.19
2023-03-21T15:46:49.149Z,72.47
2023-03-21T15:48:24.284Z,71.79
2023-03-21T15:49:27.291Z,71.78
2023-03-21T15:50:29.992Z,71.65
2023-03-21T15:52:05.183Z,71.39
2023-03-21T15:53:08.051Z,71.96
2023-03-21T15:54:12.600Z,71.88
2023-03-21T15:55:48.600Z,72.29
2023-03-21T15:56:51.816Z,71.41
2023-03-21T15:57:54.816Z,72.69
2023-03-21T15:59:29.684Z,72.44
2023-03-21T16:00:17.543Z,72.36
2023-03-21T16:01:21.695Z,72.56
2023-03-21T16:02:25.250Z,72.70
2023-03-21T16:04:00.356Z,72.28
2023-03-21T16:05:03.365Z,73.01
2023-03-21T16:06:07.112Z,73.11
2023-03-21T16:07:42.078Z,73.06
2023-03-21T16:08:44.916Z,73.38
2023-03-21T16:09:47.710Z,72.77
2023-03-21T16:11:23.418Z,73.02
2023-03-21T16:12:26.249Z,73.50
2023-03-21T16:13:29.140Z,72.81
2023-03-21T16:15:04.247Z,73.22
2023-03-21T16:16:07.349Z,73.51
2023-03-21T16:17:10.811Z,73.22
2023-03-21T16:18:45.549Z,73.46